sensor_id;sensor_type;location;lat;lon;timestamp;P1;durP1;ratioP1;P2;durP2;ratioP2
24153;SDS011;12312;53.362;-1.518;2022-10-23T00:01:29;13.82;;;6.88;;
24153;SDS011;12312;53.362;-1.518;2022-10-23T00:03:57;16.52;;;9.00;;
24153;SDS011;12312;53.362;-1.518;2022-10-23T00:06:25;13.02;;;7.60;;
24153;SDS011;12312;53.362;-1.518;2022-10-23T00:08:51;21.95;;;8.98;;
24153;SDS011;12312;53.362;-1.518;2022-10-23T00:11:18;20.60;;;9.63;;
24153;SDS011;12312;53.362;-1.518;2022-10-23T00:13:46;16.23;;;8.40;;
24153;SDS011;12312;53.362;-1.518;2022-10-23T00:16:12;17.50;;;9.10;;
24153;SDS011;12312;53.362;-1.518;2022-10-23T00:18:42;14.95;;;8.90;;
24153;SDS011;12312;53.362;-1.518;2022-10-23T00:21:11;19.80;;;9.68;;
24153;SDS011;12312;53.362;-1.518;2022-10-23T00:23:39;13.60;;;8.70;;
24153;SDS011;12312;53.362;-1.518;2022-10-23T00:26:06;15.55;;;9.07;;
24153;SDS011;12312;53.362;-1.518;2022-10-23T00:28:33;18.65;;;9.73;;
24153;SDS011;12312;53.362;-1.518;2022-10-23T00:31:00;18.05;;;9.15;;
24153;SDS011;12312;53.362;-1.518;2022-10-23T00:33:29;18.45;;;9.30;;
24153;SDS011;12312;53.362;-1.518;2022-10-23T00:35:55;18.58;;;9.75;;
24153;SDS011;12312;53.362;-1.518;2022-10-23T00:38:21;15.55;;;9.40;;
24153;SDS011;12312;53.362;-1.518;2022-10-23T00:40:47;15.70;;;9.32;;
24153;SDS011;12312;53.362;-1.518;2022-10-23T00:43:17;18.17;;;9.82;;
24153;SDS011;12312;53.362;-1.518;2022-10-23T00:45:50;16.52;;;9.80;;
24153;SDS011;12312;53.362;-1.518;2022-10-23T00:48:17;20.15;;;10.23;;
24153;SDS011;12312;53.362;-1.518;2022-10-23T00:50:43;17.15;;;9.93;;
24153;SDS011;12312;53.362;-1.518;2022-10-23T00:53:11;18.77;;;9.23;;
24153;SDS011;12312;53.362;-1.518;2022-10-23T00:55:40;15.80;;;8.98;;
24153;SDS011;12312;53.362;-1.518;2022-10-23T00:58:11;17.77;;;9.40;;
24153;SDS011;12312;53.362;-1.518;2022-10-23T01:00:49;15.82;;;9.00;;
24153;SDS011;12312;53.362;-1.518;2022-10-23T01:03:17;16.67;;;9.27;;
24153;SDS011;12312;53.362;-1.518;2022-10-23T01:06:30;22.55;;;10.52;;
24153;SDS011;12312;53.362;-1.518;2022-10-23T01:08:51;20.35;;;10.73;;
24153;SDS011;12312;53.362;-1.518;2022-10-23T01:12:08;15.80;;;9.15;;
24153;SDS011;12312;53.362;-1.518;2022-10-23T01:17:03;18.75;;;9.13;;
24153;SDS011;12312;53.362;-1.518;2022-10-23T01:19:41;21.85;;;10.90;;
24153;SDS011;12312;53.362;-1.518;2022-10-23T01:27:51;21.40;;;11.65;;
24153;SDS011;12312;53.362;-1.518;2022-10-23T01:30:24;22.77;;;11.15;;
24153;SDS011;12312;53.362;-1.518;2022-10-23T01:33:12;24.90;;;13.07;;
24153;SDS011;12312;53.362;-1.518;2022-10-23T01:36:25;20.35;;;12.13;;
24153;SDS011;12312;53.362;-1.518;2022-10-23T01:41:18;22.85;;;11.95;;
24153;SDS011;12312;53.362;-1.518;2022-10-23T01:46:24;23.45;;;12.38;;
24153;SDS011;12312;53.362;-1.518;2022-10-23T01:48:52;28.13;;;12.55;;
24153;SDS011;12312;53.362;-1.518;2022-10-23T01:51:20;27.92;;;14.30;;
24153;SDS011;12312;53.362;-1.518;2022-10-23T01:53:54;28.10;;;13.75;;
24153;SDS011;12312;53.362;-1.518;2022-10-23T01:56:30;29.77;;;13.50;;
24153;SDS011;12312;53.362;-1.518;2022-10-23T01:59:00;25.63;;;12.65;;
24153;SDS011;12312;53.362;-1.518;2022-10-23T02:01:31;21.80;;;12.13;;
24153;SDS011;12312;53.362;-1.518;2022-10-23T02:03:58;23.23;;;11.60;;
24153;SDS011;12312;53.362;-1.518;2022-10-23T02:06:30;21.05;;;11.15;;
24153;SDS011;12312;53.362;-1.518;2022-10-23T02:08:55;20.60;;;10.82;;
24153;SDS011;12312;53.362;-1.518;2022-10-23T02:11:21;21.05;;;10.95;;
24153;SDS011;12312;53.362;-1.518;2022-10-23T02:17:06;21.38;;;11.00;;
24153;SDS011;12312;53.362;-1.518;2022-10-23T02:19:53;23.05;;;10.52;;
24153;SDS011;12312;53.362;-1.518;2022-10-23T02:22:35;21.40;;;9.90;;
24153;SDS011;12312;53.362;-1.518;2022-10-23T02:27:52;16.40;;;9.60;;
24153;SDS011;12312;53.362;-1.518;2022-10-23T02:30:26;18.52;;;10.25;;
24153;SDS011;12312;53.362;-1.518;2022-10-23T02:32:55;17.92;;;9.88;;
24153;SDS011;12312;53.362;-1.518;2022-10-23T02:35:24;19.63;;;9.18;;
24153;SDS011;12312;53.362;-1.518;2022-10-23T02:37:53;21.77;;;9.07;;
24153;SDS011;12312;53.362;-1.518;2022-10-23T02:40:21;18.60;;;9.38;;
24153;SDS011;12312;53.362;-1.518;2022-10-23T02:43:02;16.50;;;8.52;;
24153;SDS011;12312;53.362;-1.518;2022-10-23T02:48:39;17.50;;;9.20;;
24153;SDS011;12312;53.362;-1.518;2022-10-23T02:51:14;15.88;;;8.25;;
24153;SDS011;12312;53.362;-1.518;2022-10-23T03:01:28;22.05;;;9.63;;
24153;SDS011;12312;53.362;-1.518;2022-10-23T03:04:28;19.90;;;9.27;;
24153;SDS011;12312;53.362;-1.518;2022-10-23T03:06:56;22.00;;;9.63;;
24153;SDS011;12312;53.362;-1.518;2022-10-23T03:09:25;18.27;;;9.23;;
24153;SDS011;12312;53.362;-1.518;2022-10-23T03:11:51;22.52;;;10.10;;
24153;SDS011;12312;53.362;-1.518;2022-10-23T03:14:17;21.00;;;9.85;;
24153;SDS011;12312;53.362;-1.518;2022-10-23T03:16:42;18.02;;;9.98;;
24153;SDS011;12312;53.362;-1.518;2022-10-23T03:19:08;24.00;;;10.40;;
24153;SDS011;12312;53.362;-1.518;2022-10-23T03:21:37;25.85;;;10.32;;
24153;SDS011;12312;53.362;-1.518;2022-10-23T03:24:03;20.23;;;9.38;;
24153;SDS011;12312;53.362;-1.518;2022-10-23T03:26:30;22.33;;;9.93;;
24153;SDS011;12312;53.362;-1.518;2022-10-23T03:28:56;25.35;;;10.57;;
24153;SDS011;12312;53.362;-1.518;2022-10-23T03:31:23;24.35;;;10.95;;
24153;SDS011;12312;53.362;-1.518;2022-10-23T03:33:48;24.77;;;10.45;;
24153;SDS011;12312;53.362;-1.518;2022-10-23T03:36:14;21.48;;;11.20;;
24153;SDS011;12312;53.362;-1.518;2022-10-23T03:38:40;23.35;;;9.80;;
24153;SDS011;12312;53.362;-1.518;2022-10-23T03:41:05;21.55;;;10.13;;
24153;SDS011;12312;53.362;-1.518;2022-10-23T03:43:31;22.63;;;9.88;;
24153;SDS011;12312;53.362;-1.518;2022-10-23T03:45:58;23.25;;;10.88;;
24153;SDS011;12312;53.362;-1.518;2022-10-23T03:48:25;21.13;;;11.27;;
24153;SDS011;12312;53.362;-1.518;2022-10-23T03:50:51;25.63;;;10.77;;
24153;SDS011;12312;53.362;-1.518;2022-10-23T03:53:17;22.60;;;10.25;;
24153;SDS011;12312;53.362;-1.518;2022-10-23T03:55:44;24.58;;;11.80;;
24153;SDS011;12312;53.362;-1.518;2022-10-23T03:58:10;26.50;;;11.50;;
24153;SDS011;12312;53.362;-1.518;2022-10-23T04:00:35;27.65;;;13.23;;
24153;SDS011;12312;53.362;-1.518;2022-10-23T04:03:02;26.23;;;12.20;;
24153;SDS011;12312;53.362;-1.518;2022-10-23T04:05:28;24.05;;;12.10;;
24153;SDS011;12312;53.362;-1.518;2022-10-23T04:07:54;26.92;;;12.77;;
24153;SDS011;12312;53.362;-1.518;2022-10-23T04:10:19;25.67;;;11.43;;
24153;SDS011;12312;53.362;-1.518;2022-10-23T04:12:45;28.98;;;12.23;;
24153;SDS011;12312;53.362;-1.518;2022-10-23T04:15:11;23.52;;;12.32;;
24153;SDS011;12312;53.362;-1.518;2022-10-23T04:17:37;25.70;;;12.93;;
24153;SDS011;12312;53.362;-1.518;2022-10-23T04:20:03;27.98;;;13.40;;
24153;SDS011;12312;53.362;-1.518;2022-10-23T04:22:30;37.28;;;13.75;;
24153;SDS011;12312;53.362;-1.518;2022-10-23T04:24:55;26.98;;;12.55;;
24153;SDS011;12312;53.362;-1.518;2022-10-23T04:27:23;21.50;;;12.02;;
24153;SDS011;12312;53.362;-1.518;2022-10-23T04:29:52;25.20;;;12.88;;
24153;SDS011;12312;53.362;-1.518;2022-10-23T04:32:23;26.58;;;12.63;;
24153;SDS011;12312;53.362;-1.518;2022-10-23T04:34:49;25.65;;;12.93;;
24153;SDS011;12312;53.362;-1.518;2022-10-23T04:37:14;25.58;;;11.75;;
24153;SDS011;12312;53.362;-1.518;2022-10-23T04:39:41;33.42;;;11.95;;
24153;SDS011;12312;53.362;-1.518;2022-10-23T04:42:07;29.25;;;12.77;;
24153;SDS011;12312;53.362;-1.518;2022-10-23T04:44:34;27.52;;;14.00;;
24153;SDS011;12312;53.362;-1.518;2022-10-23T04:47:00;40.97;;;15.40;;
24153;SDS011;12312;53.362;-1.518;2022-10-23T04:49:26;37.35;;;15.93;;
24153;SDS011;12312;53.362;-1.518;2022-10-23T04:51:52;45.00;;;16.33;;
24153;SDS011;12312;53.362;-1.518;2022-10-23T04:54:17;40.97;;;15.80;;
24153;SDS011;12312;53.362;-1.518;2022-10-23T04:56:43;45.08;;;17.33;;
24153;SDS011;12312;53.362;-1.518;2022-10-23T04:59:10;40.00;;;17.90;;
24153;SDS011;12312;53.362;-1.518;2022-10-23T05:01:37;40.95;;;16.98;;
24153;SDS011;12312;53.362;-1.518;2022-10-23T05:04:02;43.42;;;16.52;;
24153;SDS011;12312;53.362;-1.518;2022-10-23T05:06:28;42.97;;;17.95;;
24153;SDS011;12312;53.362;-1.518;2022-10-23T05:08:55;43.00;;;18.27;;
24153;SDS011;12312;53.362;-1.518;2022-10-23T05:11:21;41.83;;;18.00;;
24153;SDS011;12312;53.362;-1.518;2022-10-23T05:13:47;43.35;;;17.23;;
24153;SDS011;12312;53.362;-1.518;2022-10-23T05:16:36;44.35;;;16.90;;
24153;SDS011;12312;53.362;-1.518;2022-10-23T05:19:02;37.60;;;17.50;;
24153;SDS011;12312;53.362;-1.518;2022-10-23T05:21:31;47.60;;;17.70;;
24153;SDS011;12312;53.362;-1.518;2022-10-23T05:23:59;42.65;;;17.95;;
24153;SDS011;12312;53.362;-1.518;2022-10-23T05:26:26;56.15;;;19.50;;
24153;SDS011;12312;53.362;-1.518;2022-10-23T05:28:54;47.17;;;19.25;;
24153;SDS011;12312;53.362;-1.518;2022-10-23T05:31:19;47.28;;;19.00;;
24153;SDS011;12312;53.362;-1.518;2022-10-23T05:33:47;57.28;;;20.08;;
24153;SDS011;12312;53.362;-1.518;2022-10-23T05:36:13;46.75;;;20.70;;
24153;SDS011;12312;53.362;-1.518;2022-10-23T05:38:39;49.40;;;20.35;;
24153;SDS011;12312;53.362;-1.518;2022-10-23T05:41:05;45.80;;;19.90;;
24153;SDS011;12312;53.362;-1.518;2022-10-23T05:43:31;54.03;;;20.83;;
24153;SDS011;12312;53.362;-1.518;2022-10-23T05:45:57;48.88;;;20.48;;
24153;SDS011;12312;53.362;-1.518;2022-10-23T05:48:22;57.13;;;21.55;;
24153;SDS011;12312;53.362;-1.518;2022-10-23T05:50:49;65.63;;;22.88;;
24153;SDS011;12312;53.362;-1.518;2022-10-23T05:53:15;50.22;;;21.63;;
24153;SDS011;12312;53.362;-1.518;2022-10-23T05:55:40;83.15;;;22.13;;
24153;SDS011;12312;53.362;-1.518;2022-10-23T05:58:06;90.35;;;23.17;;
24153;SDS011;12312;53.362;-1.518;2022-10-23T06:00:32;78.68;;;23.35;;
24153;SDS011;12312;53.362;-1.518;2022-10-23T06:02:58;107.70;;;24.40;;
24153;SDS011;12312;53.362;-1.518;2022-10-23T06:05:26;189.45;;;28.40;;
24153;SDS011;12312;53.362;-1.518;2022-10-23T06:07:55;216.57;;;30.73;;
24153;SDS011;12312;53.362;-1.518;2022-10-23T06:10:22;359.00;;;36.05;;
24153;SDS011;12312;53.362;-1.518;2022-10-23T06:12:49;325.63;;;34.25;;
24153;SDS011;12312;53.362;-1.518;2022-10-23T06:15:15;157.15;;;31.52;;
24153;SDS011;12312;53.362;-1.518;2022-10-23T06:17:41;400.77;;;37.13;;
24153;SDS011;12312;53.362;-1.518;2022-10-23T06:20:10;291.52;;;32.33;;
24153;SDS011;12312;53.362;-1.518;2022-10-23T06:22:36;499.17;;;39.15;;
24153;SDS011;12312;53.362;-1.518;2022-10-23T06:25:03;799.55;;;51.75;;
24153;SDS011;12312;53.362;-1.518;2022-10-23T06:27:28;344.58;;;36.13;;
24153;SDS011;12312;53.362;-1.518;2022-10-23T06:29:54;299.88;;;32.33;;
24153;SDS011;12312;53.362;-1.518;2022-10-23T06:32:21;542.10;;;39.38;;
24153;SDS011;12312;53.362;-1.518;2022-10-23T06:34:48;354.20;;;30.15;;
24153;SDS011;12312;53.362;-1.518;2022-10-23T06:37:17;97.45;;;24.80;;
24153;SDS011;12312;53.362;-1.518;2022-10-23T06:39:43;225.68;;;31.52;;
24153;SDS011;12312;53.362;-1.518;2022-10-23T06:42:09;376.35;;;38.45;;
24153;SDS011;12312;53.362;-1.518;2022-10-23T06:44:36;460.45;;;37.08;;
24153;SDS011;12312;53.362;-1.518;2022-10-23T06:47:01;234.18;;;27.85;;
24153;SDS011;12312;53.362;-1.518;2022-10-23T06:49:27;389.38;;;33.22;;
24153;SDS011;12312;53.362;-1.518;2022-10-23T06:51:53;407.17;;;35.35;;
24153;SDS011;12312;53.362;-1.518;2022-10-23T06:54:19;457.95;;;38.50;;
24153;SDS011;12312;53.362;-1.518;2022-10-23T06:56:45;249.85;;;29.58;;
24153;SDS011;12312;53.362;-1.518;2022-10-23T06:59:11;181.57;;;28.02;;
24153;SDS011;12312;53.362;-1.518;2022-10-23T07:01:38;382.83;;;35.22;;
24153;SDS011;12312;53.362;-1.518;2022-10-23T07:04:04;458.88;;;34.80;;
24153;SDS011;12312;53.362;-1.518;2022-10-23T07:06:29;409.27;;;35.38;;
24153;SDS011;12312;53.362;-1.518;2022-10-23T07:08:55;563.53;;;40.53;;
24153;SDS011;12312;53.362;-1.518;2022-10-23T07:11:21;252.50;;;27.25;;
24153;SDS011;12312;53.362;-1.518;2022-10-23T07:13:47;132.80;;;24.80;;
24153;SDS011;12312;53.362;-1.518;2022-10-23T07:16:19;104.72;;;24.73;;
24153;SDS011;12312;53.362;-1.518;2022-10-23T07:18:46;88.90;;;24.38;;
24153;SDS011;12312;53.362;-1.518;2022-10-23T07:21:14;175.45;;;26.27;;
24153;SDS011;12312;53.362;-1.518;2022-10-23T07:23:40;123.43;;;26.42;;
24153;SDS011;12312;53.362;-1.518;2022-10-23T07:28:36;297.85;;;30.08;;
24153;SDS011;12312;53.362;-1.518;2022-10-23T07:31:05;92.50;;;22.05;;
24153;SDS011;12312;53.362;-1.518;2022-10-23T07:33:34;111.03;;;18.08;;
24153;SDS011;12312;53.362;-1.518;2022-10-23T07:36:02;44.70;;;16.38;;
24153;SDS011;12312;53.362;-1.518;2022-10-23T07:38:29;47.35;;;15.70;;
24153;SDS011;12312;53.362;-1.518;2022-10-23T07:40:58;38.83;;;14.43;;
24153;SDS011;12312;53.362;-1.518;2022-10-23T07:43:24;36.80;;;14.50;;
24153;SDS011;12312;53.362;-1.518;2022-10-23T07:45:53;35.85;;;14.93;;
24153;SDS011;12312;53.362;-1.518;2022-10-23T07:48:19;34.08;;;13.95;;
24153;SDS011;12312;53.362;-1.518;2022-10-23T07:50:50;64.75;;;17.45;;
24153;SDS011;12312;53.362;-1.518;2022-10-23T07:53:16;213.98;;;24.90;;
24153;SDS011;12312;53.362;-1.518;2022-10-23T07:55:54;193.98;;;25.77;;
24153;SDS011;12312;53.362;-1.518;2022-10-23T07:58:23;160.60;;;24.92;;
24153;SDS011;12312;53.362;-1.518;2022-10-23T08:00:57;117.70;;;23.35;;
24153;SDS011;12312;53.362;-1.518;2022-10-23T08:03:25;103.65;;;24.58;;
24153;SDS011;12312;53.362;-1.518;2022-10-23T08:05:51;223.15;;;29.10;;
24153;SDS011;12312;53.362;-1.518;2022-10-23T08:08:18;649.53;;;43.38;;
24153;SDS011;12312;53.362;-1.518;2022-10-23T08:10:48;616.08;;;39.25;;
24153;SDS011;12312;53.362;-1.518;2022-10-23T08:13:14;720.05;;;47.80;;
24153;SDS011;12312;53.362;-1.518;2022-10-23T08:15:41;480.95;;;37.67;;
24153;SDS011;12312;53.362;-1.518;2022-10-23T08:18:09;515.25;;;33.78;;
24153;SDS011;12312;53.362;-1.518;2022-10-23T08:20:38;723.47;;;40.83;;
24153;SDS011;12312;53.362;-1.518;2022-10-23T08:23:04;346.02;;;24.73;;
24153;SDS011;12312;53.362;-1.518;2022-10-23T08:25:31;255.93;;;22.58;;
24153;SDS011;12312;53.362;-1.518;2022-10-23T08:27:57;607.20;;;36.90;;
24153;SDS011;12312;53.362;-1.518;2022-10-23T08:30:23;383.67;;;29.00;;
24153;SDS011;12312;53.362;-1.518;2022-10-23T08:32:48;158.13;;;19.55;;
24153;SDS011;12312;53.362;-1.518;2022-10-23T08:35:15;362.17;;;27.90;;
24153;SDS011;12312;53.362;-1.518;2022-10-23T08:37:41;365.05;;;30.00;;
24153;SDS011;12312;53.362;-1.518;2022-10-23T08:40:08;231.90;;;24.08;;
24153;SDS011;12312;53.362;-1.518;2022-10-23T08:45:38;315.20;;;28.08;;
24153;SDS011;12312;53.362;-1.518;2022-10-23T08:48:40;250.85;;;27.83;;
24153;SDS011;12312;53.362;-1.518;2022-10-23T08:53:43;239.63;;;29.13;;
24153;SDS011;12312;53.362;-1.518;2022-10-23T08:56:31;130.38;;;26.85;;
24153;SDS011;12312;53.362;-1.518;2022-10-23T09:01:48;95.15;;;26.60;;
24153;SDS011;12312;53.362;-1.518;2022-10-23T09:04:19;124.70;;;28.70;;
24153;SDS011;12312;53.362;-1.518;2022-10-23T09:06:58;115.68;;;26.92;;
24153;SDS011;12312;53.362;-1.518;2022-10-23T09:12:33;76.20;;;25.17;;
24153;SDS011;12312;53.362;-1.518;2022-10-23T09:15:03;77.05;;;25.23;;
24153;SDS011;12312;53.362;-1.518;2022-10-23T09:17:36;79.85;;;25.75;;
24153;SDS011;12312;53.362;-1.518;2022-10-23T09:22:46;64.03;;;25.23;;
24153;SDS011;12312;53.362;-1.518;2022-10-23T09:25:55;52.42;;;24.27;;
24153;SDS011;12312;53.362;-1.518;2022-10-23T09:28:03;54.53;;;23.50;;
24153;SDS011;12312;53.362;-1.518;2022-10-23T09:33:25;53.33;;;23.20;;
24153;SDS011;12312;53.362;-1.518;2022-10-23T09:38:32;570.25;;;44.42;;
24153;SDS011;12312;53.362;-1.518;2022-10-23T09:41:21;476.25;;;38.85;;
24153;SDS011;12312;53.362;-1.518;2022-10-23T09:44:05;47.78;;;20.77;;
24153;SDS011;12312;53.362;-1.518;2022-10-23T09:46:49;93.90;;;23.38;;
24153;SDS011;12312;53.362;-1.518;2022-10-23T09:54:31;38.88;;;21.27;;
24153;SDS011;12312;53.362;-1.518;2022-10-23T09:57:05;39.13;;;19.75;;
24153;SDS011;12312;53.362;-1.518;2022-10-23T09:59:52;28.15;;;15.32;;
24153;SDS011;12312;53.362;-1.518;2022-10-23T10:04:53;36.75;;;21.65;;
24153;SDS011;12312;53.362;-1.518;2022-10-23T10:07:23;32.85;;;19.73;;
24153;SDS011;12312;53.362;-1.518;2022-10-23T10:09:54;51.22;;;22.52;;
24153;SDS011;12312;53.362;-1.518;2022-10-23T10:31:44;22.25;;;13.38;;
24153;SDS011;12312;53.362;-1.518;2022-10-23T10:37:23;7.95;;;5.57;;
24153;SDS011;12312;53.362;-1.518;2022-10-23T10:39:59;5.90;;;4.63;;
24153;SDS011;12312;53.362;-1.518;2022-10-23T10:53:27;12.48;;;8.63;;
24153;SDS011;12312;53.362;-1.518;2022-10-23T10:56:03;13.10;;;8.70;;
24153;SDS011;12312;53.362;-1.518;2022-10-23T11:04:10;9.52;;;7.53;;
24153;SDS011;12312;53.362;-1.518;2022-10-23T11:06:44;11.02;;;8.45;;
24153;SDS011;12312;53.362;-1.518;2022-10-23T11:09:36;11.18;;;8.88;;
24153;SDS011;12312;53.362;-1.518;2022-10-23T11:12:02;13.45;;;10.27;;
24153;SDS011;12312;53.362;-1.518;2022-10-23T11:14:29;14.93;;;11.10;;
24153;SDS011;12312;53.362;-1.518;2022-10-23T11:17:02;16.77;;;13.32;;
24153;SDS011;12312;53.362;-1.518;2022-10-23T11:19:40;17.48;;;13.07;;
24153;SDS011;12312;53.362;-1.518;2022-10-23T11:27:54;20.45;;;15.68;;
24153;SDS011;12312;53.362;-1.518;2022-10-23T11:30:30;25.33;;;18.70;;
24153;SDS011;12312;53.362;-1.518;2022-10-23T11:36:05;28.38;;;19.30;;
24153;SDS011;12312;53.362;-1.518;2022-10-23T11:38:47;29.75;;;20.13;;
24153;SDS011;12312;53.362;-1.518;2022-10-23T11:41:22;26.45;;;20.67;;
24153;SDS011;12312;53.362;-1.518;2022-10-23T11:43:54;27.02;;;19.25;;
24153;SDS011;12312;53.362;-1.518;2022-10-23T11:46:30;40.17;;;29.50;;
24153;SDS011;12312;53.362;-1.518;2022-10-23T11:48:58;83.78;;;46.60;;
24153;SDS011;12312;53.362;-1.518;2022-10-23T11:56:38;25.75;;;20.55;;
24153;SDS011;12312;53.362;-1.518;2022-10-23T11:59:18;27.75;;;21.30;;
24153;SDS011;12312;53.362;-1.518;2022-10-23T12:01:49;27.02;;;19.88;;
24153;SDS011;12312;53.362;-1.518;2022-10-23T12:04:51;26.10;;;20.70;;
24153;SDS011;12312;53.362;-1.518;2022-10-23T12:07:20;28.52;;;21.05;;
24153;SDS011;12312;53.362;-1.518;2022-10-23T12:09:59;24.67;;;19.58;;
24153;SDS011;12312;53.362;-1.518;2022-10-23T12:12:32;23.58;;;18.08;;
24153;SDS011;12312;53.362;-1.518;2022-10-23T12:17:40;24.05;;;18.40;;
24153;SDS011;12312;53.362;-1.518;2022-10-23T12:39:30;25.70;;;19.60;;
24153;SDS011;12312;53.362;-1.518;2022-10-23T12:41:58;25.60;;;19.80;;
24153;SDS011;12312;53.362;-1.518;2022-10-23T12:44:24;25.27;;;19.23;;
24153;SDS011;12312;53.362;-1.518;2022-10-23T12:46:55;23.30;;;18.98;;
24153;SDS011;12312;53.362;-1.518;2022-10-23T12:49:24;21.60;;;17.83;;
24153;SDS011;12312;53.362;-1.518;2022-10-23T12:54:22;18.98;;;15.43;;
24153;SDS011;12312;53.362;-1.518;2022-10-23T12:56:48;19.25;;;15.68;;
24153;SDS011;12312;53.362;-1.518;2022-10-23T12:59:15;18.13;;;14.55;;
24153;SDS011;12312;53.362;-1.518;2022-10-23T13:01:43;16.42;;;13.13;;
24153;SDS011;12312;53.362;-1.518;2022-10-23T13:06:35;15.40;;;12.48;;
24153;SDS011;12312;53.362;-1.518;2022-10-23T13:09:03;17.33;;;13.85;;
24153;SDS011;12312;53.362;-1.518;2022-10-23T13:11:31;14.80;;;11.02;;
24153;SDS011;12312;53.362;-1.518;2022-10-23T13:13:57;15.18;;;11.35;;
24153;SDS011;12312;53.362;-1.518;2022-10-23T13:16:24;15.40;;;11.27;;
24153;SDS011;12312;53.362;-1.518;2022-10-23T13:18:51;14.68;;;11.23;;
24153;SDS011;12312;53.362;-1.518;2022-10-23T13:21:21;11.65;;;10.07;;
24153;SDS011;12312;53.362;-1.518;2022-10-23T13:23:49;10.32;;;9.15;;
24153;SDS011;12312;53.362;-1.518;2022-10-23T13:29:00;10.88;;;9.63;;
24153;SDS011;12312;53.362;-1.518;2022-10-23T13:31:29;9.85;;;8.68;;
24153;SDS011;12312;53.362;-1.518;2022-10-23T13:36:25;8.75;;;7.28;;
24153;SDS011;12312;53.362;-1.518;2022-10-23T13:41:25;7.20;;;5.90;;
24153;SDS011;12312;53.362;-1.518;2022-10-23T13:43:52;10.75;;;7.32;;
24153;SDS011;12312;53.362;-1.518;2022-10-23T13:46:19;15.40;;;7.57;;
24153;SDS011;12312;53.362;-1.518;2022-10-23T13:48:47;8.48;;;6.47;;
24153;SDS011;12312;53.362;-1.518;2022-10-23T13:51:23;10.80;;;6.47;;
24153;SDS011;12312;53.362;-1.518;2022-10-23T13:53:51;8.88;;;6.57;;
24153;SDS011;12312;53.362;-1.518;2022-10-23T13:56:18;9.63;;;7.05;;
24153;SDS011;12312;53.362;-1.518;2022-10-23T13:58:46;9.75;;;6.45;;
24153;SDS011;12312;53.362;-1.518;2022-10-23T14:01:18;8.02;;;6.00;;
24153;SDS011;12312;53.362;-1.518;2022-10-23T14:03:47;9.05;;;5.93;;
24153;SDS011;12312;53.362;-1.518;2022-10-23T14:06:16;8.00;;;6.50;;
24153;SDS011;12312;53.362;-1.518;2022-10-23T14:08:43;8.75;;;6.55;;
24153;SDS011;12312;53.362;-1.518;2022-10-23T14:11:12;7.95;;;6.68;;
24153;SDS011;12312;53.362;-1.518;2022-10-23T14:13:39;9.10;;;6.80;;
24153;SDS011;12312;53.362;-1.518;2022-10-23T14:16:05;8.77;;;6.50;;
24153;SDS011;12312;53.362;-1.518;2022-10-23T14:18:32;10.50;;;6.47;;
24153;SDS011;12312;53.362;-1.518;2022-10-23T14:20:59;10.13;;;7.10;;
24153;SDS011;12312;53.362;-1.518;2022-10-23T14:23:25;9.70;;;7.45;;
24153;SDS011;12312;53.362;-1.518;2022-10-23T14:25:51;10.85;;;7.90;;
24153;SDS011;12312;53.362;-1.518;2022-10-23T14:28:17;9.23;;;7.18;;
24153;SDS011;12312;53.362;-1.518;2022-10-23T14:30:44;8.32;;;6.65;;
24153;SDS011;12312;53.362;-1.518;2022-10-23T14:33:10;10.38;;;6.70;;
24153;SDS011;12312;53.362;-1.518;2022-10-23T14:35:41;10.55;;;7.55;;
24153;SDS011;12312;53.362;-1.518;2022-10-23T14:38:07;11.43;;;7.05;;
24153;SDS011;12312;53.362;-1.518;2022-10-23T14:40:35;8.80;;;6.80;;
24153;SDS011;12312;53.362;-1.518;2022-10-23T14:43:02;9.18;;;6.57;;
24153;SDS011;12312;53.362;-1.518;2022-10-23T14:45:28;13.30;;;7.60;;
24153;SDS011;12312;53.362;-1.518;2022-10-23T14:47:54;12.73;;;8.57;;
24153;SDS011;12312;53.362;-1.518;2022-10-23T14:50:20;12.10;;;7.82;;
24153;SDS011;12312;53.362;-1.518;2022-10-23T14:52:46;12.90;;;8.38;;
24153;SDS011;12312;53.362;-1.518;2022-10-23T14:55:12;15.63;;;11.77;;
24153;SDS011;12312;53.362;-1.518;2022-10-23T14:57:38;13.27;;;8.00;;
24153;SDS011;12312;53.362;-1.518;2022-10-23T15:00:04;10.80;;;7.97;;
24153;SDS011;12312;53.362;-1.518;2022-10-23T15:02:31;12.77;;;8.02;;
24153;SDS011;12312;53.362;-1.518;2022-10-23T15:04:57;8.18;;;7.15;;
24153;SDS011;12312;53.362;-1.518;2022-10-23T15:07:23;13.63;;;7.88;;
24153;SDS011;12312;53.362;-1.518;2022-10-23T15:09:49;11.48;;;6.82;;
24153;SDS011;12312;53.362;-1.518;2022-10-23T15:12:16;11.75;;;7.82;;
24153;SDS011;12312;53.362;-1.518;2022-10-23T15:14:42;11.27;;;7.25;;
24153;SDS011;12312;53.362;-1.518;2022-10-23T15:17:08;14.05;;;8.82;;
24153;SDS011;12312;53.362;-1.518;2022-10-23T15:19:33;9.80;;;7.70;;
24153;SDS011;12312;53.362;-1.518;2022-10-23T15:22:00;10.55;;;7.50;;
24153;SDS011;12312;53.362;-1.518;2022-10-23T15:24:26;11.98;;;7.68;;
24153;SDS011;12312;53.362;-1.518;2022-10-23T15:26:52;13.02;;;9.10;;
24153;SDS011;12312;53.362;-1.518;2022-10-23T15:29:18;11.73;;;7.88;;
24153;SDS011;12312;53.362;-1.518;2022-10-23T15:31:45;11.50;;;8.27;;
24153;SDS011;12312;53.362;-1.518;2022-10-23T15:34:20;11.32;;;8.55;;
24153;SDS011;12312;53.362;-1.518;2022-10-23T15:36:48;12.75;;;8.90;;
24153;SDS011;12312;53.362;-1.518;2022-10-23T15:39:15;13.13;;;9.35;;
24153;SDS011;12312;53.362;-1.518;2022-10-23T15:41:43;11.52;;;9.43;;
24153;SDS011;12312;53.362;-1.518;2022-10-23T15:44:11;14.73;;;10.52;;
24153;SDS011;12312;53.362;-1.518;2022-10-23T15:46:38;12.98;;;9.13;;
24153;SDS011;12312;53.362;-1.518;2022-10-23T15:49:05;10.90;;;8.18;;
24153;SDS011;12312;53.362;-1.518;2022-10-23T15:51:32;9.93;;;7.75;;
24153;SDS011;12312;53.362;-1.518;2022-10-23T15:53:58;12.50;;;8.82;;
24153;SDS011;12312;53.362;-1.518;2022-10-23T15:56:24;10.57;;;7.97;;
24153;SDS011;12312;53.362;-1.518;2022-10-23T15:58:50;12.55;;;9.45;;
24153;SDS011;12312;53.362;-1.518;2022-10-23T16:01:16;11.52;;;9.55;;
24153;SDS011;12312;53.362;-1.518;2022-10-23T16:03:41;14.65;;;9.57;;
24153;SDS011;12312;53.362;-1.518;2022-10-23T16:06:10;13.70;;;9.75;;
24153;SDS011;12312;53.362;-1.518;2022-10-23T16:08:38;12.57;;;9.50;;
24153;SDS011;12312;53.362;-1.518;2022-10-23T16:11:12;13.05;;;9.75;;
24153;SDS011;12312;53.362;-1.518;2022-10-23T16:13:46;12.15;;;9.25;;
24153;SDS011;12312;53.362;-1.518;2022-10-23T16:16:13;14.50;;;9.50;;
24153;SDS011;12312;53.362;-1.518;2022-10-23T16:18:39;18.30;;;10.80;;
24153;SDS011;12312;53.362;-1.518;2022-10-23T16:21:11;17.67;;;12.18;;
24153;SDS011;12312;53.362;-1.518;2022-10-23T16:23:42;16.58;;;12.63;;
24153;SDS011;12312;53.362;-1.518;2022-10-23T16:26:09;21.17;;;12.32;;
24153;SDS011;12312;53.362;-1.518;2022-10-23T16:28:35;17.27;;;11.00;;
24153;SDS011;12312;53.362;-1.518;2022-10-23T16:31:01;10.73;;;8.48;;
24153;SDS011;12312;53.362;-1.518;2022-10-23T16:33:32;15.73;;;9.85;;
24153;SDS011;12312;53.362;-1.518;2022-10-23T16:36:02;13.05;;;8.73;;
24153;SDS011;12312;53.362;-1.518;2022-10-23T16:38:31;13.20;;;9.38;;
24153;SDS011;12312;53.362;-1.518;2022-10-23T16:40:58;10.35;;;7.32;;
24153;SDS011;12312;53.362;-1.518;2022-10-23T16:43:24;12.82;;;7.22;;
24153;SDS011;12312;53.362;-1.518;2022-10-23T16:48:36;15.77;;;8.10;;
24153;SDS011;12312;53.362;-1.518;2022-10-23T16:51:05;12.45;;;7.20;;
24153;SDS011;12312;53.362;-1.518;2022-10-23T16:53:35;11.63;;;7.45;;